sensor_id;sensor_type;location;lat;lon;timestamp;temperature;humidity
38910;DHT22;24676;51.360;12.354;2022-07-24T04:02:03;12.80;99.90
38910;DHT22;24676;51.360;12.354;2022-07-24T04:04:47;12.90;99.90
38910;DHT22;24676;51.360;12.354;2022-07-24T04:07:31;12.90;99.90
38910;DHT22;24676;51.360;12.354;2022-07-24T04:10:15;13.00;99.90
38910;DHT22;24676;51.360;12.354;2022-07-24T04:12:59;13.00;99.90
38910;DHT22;24676;51.360;12.354;2022-07-24T04:15:45;13.10;99.90
38910;DHT22;24676;51.360;12.354;2022-07-24T04:18:30;13.10;99.90
38910;DHT22;24676;51.360;12.354;2022-07-24T04:21:15;13.20;99.90
38910;DHT22;24676;51.360;12.354;2022-07-24T04:24:02;13.30;99.90
38910;DHT22;24676;51.360;12.354;2022-07-24T04:26:46;13.40;99.90
38910;DHT22;24676;51.360;12.354;2022-07-24T04:29:31;13.50;99.90
38910;DHT22;24676;51.360;12.354;2022-07-24T04:32:17;13.60;99.90
38910;DHT22;24676;51.360;12.354;2022-07-24T04:35:02;13.70;99.90
38910;DHT22;24676;51.360;12.354;2022-07-24T04:37:49;13.80;99.90
38910;DHT22;24676;51.360;12.354;2022-07-24T04:40:34;13.90;99.90
38910;DHT22;24676;51.360;12.354;2022-07-24T04:43:18;14.10;99.90
38910;DHT22;24676;51.360;12.354;2022-07-24T04:46:02;14.20;99.90
38910;DHT22;24676;51.360;12.354;2022-07-24T04:48:47;14.70;99.90
38910;DHT22;24676;51.360;12.354;2022-07-24T04:51:31;16.50;99.90
38910;DHT22;24676;51.360;12.354;2022-07-24T04:54:16;18.90;99.90
38910;DHT22;24676;51.360;12.354;2022-07-24T04:57:00;21.30;99.90
38910;DHT22;24676;51.360;12.354;2022-07-24T04:59:44;23.30;95.60
38910;DHT22;24676;51.360;12.354;2022-07-24T05:02:28;25.20;77.40
38910;DHT22;24676;51.360;12.354;2022-07-24T05:05:12;26.70;62.10
38910;DHT22;24676;51.360;12.354;2022-07-24T05:07:57;27.80;56.90
38910;DHT22;24676;51.360;12.354;2022-07-24T05:10:41;29.00;52.50
38910;DHT22;24676;51.360;12.354;2022-07-24T05:13:25;29.70;49.00
38910;DHT22;24676;51.360;12.354;2022-07-24T05:16:10;30.50;47.50
38910;DHT22;24676;51.360;12.354;2022-07-24T05:18:54;31.40;45.00
38910;DHT22;24676;51.360;12.354;2022-07-24T05:21:38;32.20;42.90
38910;DHT22;24676;51.360;12.354;2022-07-24T05:24:22;32.90;41.10
38910;DHT22;24676;51.360;12.354;2022-07-24T05:27:09;33.40;39.60
38910;DHT22;24676;51.360;12.354;2022-07-24T05:29:53;33.60;38.90
38910;DHT22;24676;51.360;12.354;2022-07-24T05:32:37;34.00;38.10
38910;DHT22;24676;51.360;12.354;2022-07-24T05:35:22;34.80;36.60
38910;DHT22;24676;51.360;12.354;2022-07-24T05:38:06;35.70;35.60
38910;DHT22;24676;51.360;12.354;2022-07-24T05:40:50;36.30;33.80
38910;DHT22;24676;51.360;12.354;2022-07-24T05:43:34;36.90;32.30
38910;DHT22;24676;51.360;12.354;2022-07-24T05:46:18;37.10;31.80
38910;DHT22;24676;51.360;12.354;2022-07-24T05:49:03;37.60;30.90
38910;DHT22;24676;51.360;12.354;2022-07-24T05:51:47;37.60;30.00
38910;DHT22;24676;51.360;12.354;2022-07-24T05:54:31;37.50;30.60
38910;DHT22;24676;51.360;12.354;2022-07-24T05:57:15;37.70;30.10
38910;DHT22;24676;51.360;12.354;2022-07-24T06:00:00;38.00;30.00
38910;DHT22;24676;51.360;12.354;2022-07-24T06:02:45;38.30;29.60
38910;DHT22;24676;51.360;12.354;2022-07-24T06:05:30;38.50;29.50
38910;DHT22;24676;51.360;12.354;2022-07-24T06:08:14;38.70;29.00
38910;DHT22;24676;51.360;12.354;2022-07-24T06:10:58;38.60;28.90
38910;DHT22;24676;51.360;12.354;2022-07-24T06:13:42;38.80;28.90
38910;DHT22;24676;51.360;12.354;2022-07-24T06:16:27;39.10;28.90
38910;DHT22;24676;51.360;12.354;2022-07-24T06:19:11;40.20;27.50
38910;DHT22;24676;51.360;12.354;2022-07-24T06:21:55;40.90;27.60
38910;DHT22;24676;51.360;12.354;2022-07-24T06:24:40;41.50;26.30
38910;DHT22;24676;51.360;12.354;2022-07-24T06:27:24;41.50;26.00
38910;DHT22;24676;51.360;12.354;2022-07-24T06:30:14;41.50;25.30
38910;DHT22;24676;51.360;12.354;2022-07-24T06:32:58;41.60;25.80
38910;DHT22;24676;51.360;12.354;2022-07-24T06:35:43;41.60;25.40
38910;DHT22;24676;51.360;12.354;2022-07-24T06:38:27;41.60;25.50
38910;DHT22;24676;51.360;12.354;2022-07-24T06:41:12;41.70;25.30
38910;DHT22;24676;51.360;12.354;2022-07-24T06:43:56;40.40;25.70
38910;DHT22;24676;51.360;12.354;2022-07-24T06:46:40;40.60;25.90
38910;DHT22;24676;51.360;12.354;2022-07-24T06:49:25;40.10;25.70
38910;DHT22;24676;51.360;12.354;2022-07-24T06:52:09;39.60;26.20
38910;DHT22;24676;51.360;12.354;2022-07-24T06:54:54;40.00;25.30
38910;DHT22;24676;51.360;12.354;2022-07-24T06:57:38;39.20;25.70
38910;DHT22;24676;51.360;12.354;2022-07-24T07:00:22;39.00;26.30
38910;DHT22;24676;51.360;12.354;2022-07-24T07:03:06;39.10;25.90
38910;DHT22;24676;51.360;12.354;2022-07-24T07:05:50;39.40;25.30
38910;DHT22;24676;51.360;12.354;2022-07-24T07:08:35;40.40;25.20
38910;DHT22;24676;51.360;12.354;2022-07-24T07:11:19;41.50;23.60
38910;DHT22;24676;51.360;12.354;2022-07-24T07:14:04;41.90;23.50
38910;DHT22;24676;51.360;12.354;2022-07-24T07:16:48;41.80;23.40
38910;DHT22;24676;51.360;12.354;2022-07-24T07:19:33;42.30;23.60
38910;DHT22;24676;51.360;12.354;2022-07-24T07:22:17;41.90;24.20
38910;DHT22;24676;51.360;12.354;2022-07-24T07:25:01;41.20;24.40
38910;DHT22;24676;51.360;12.354;2022-07-24T07:27:46;41.70;24.80
38910;DHT22;24676;51.360;12.354;2022-07-24T07:30:30;43.00;22.70
38910;DHT22;24676;51.360;12.354;2022-07-24T07:33:14;44.00;22.20
38910;DHT22;24676;51.360;12.354;2022-07-24T07:35:59;43.30;22.60
38910;DHT22;24676;51.360;12.354;2022-07-24T07:38:43;43.30;22.20
38910;DHT22;24676;51.360;12.354;2022-07-24T07:41:27;42.30;22.40
38910;DHT22;24676;51.360;12.354;2022-07-24T07:44:11;43.80;21.70
38910;DHT22;24676;51.360;12.354;2022-07-24T07:46:55;44.00;21.40
38910;DHT22;24676;51.360;12.354;2022-07-24T07:49:40;42.80;22.10
38910;DHT22;24676;51.360;12.354;2022-07-24T07:52:24;42.00;23.50
38910;DHT22;24676;51.360;12.354;2022-07-24T07:55:09;42.10;23.20
38910;DHT22;24676;51.360;12.354;2022-07-24T07:57:53;42.20;22.70
38910;DHT22;24676;51.360;12.354;2022-07-24T08:00:38;42.50;22.70
38910;DHT22;24676;51.360;12.354;2022-07-24T08:03:22;42.80;22.80
38910;DHT22;24676;51.360;12.354;2022-07-24T08:06:07;42.60;22.90
38910;DHT22;24676;51.360;12.354;2022-07-24T08:08:52;42.80;22.30
38910;DHT22;24676;51.360;12.354;2022-07-24T08:11:36;44.30;21.10
38910;DHT22;24676;51.360;12.354;2022-07-24T08:14:20;45.10;20.70
38910;DHT22;24676;51.360;12.354;2022-07-24T08:17:05;44.90;20.80
38910;DHT22;24676;51.360;12.354;2022-07-24T08:19:49;44.50;21.20
38910;DHT22;24676;51.360;12.354;2022-07-24T08:22:33;44.80;20.70
38910;DHT22;24676;51.360;12.354;2022-07-24T08:25:17;45.30;20.20
38910;DHT22;24676;51.360;12.354;2022-07-24T08:28:02;44.70;20.50
38910;DHT22;24676;51.360;12.354;2022-07-24T08:30:46;43.20;21.50
38910;DHT22;24676;51.360;12.354;2022-07-24T08:33:30;40.40;23.10
38910;DHT22;24676;51.360;12.354;2022-07-24T08:36:14;38.40;24.90
38910;DHT22;24676;51.360;12.354;2022-07-24T08:38:58;35.90;27.70
38910;DHT22;24676;51.360;12.354;2022-07-24T08:41:43;34.30;30.40
38910;DHT22;24676;51.360;12.354;2022-07-24T08:44:28;33.80;30.00
38910;DHT22;24676;51.360;12.354;2022-07-24T08:47:14;33.70;29.80
38910;DHT22;24676;51.360;12.354;2022-07-24T08:49:59;32.70;30.70
38910;DHT22;24676;51.360;12.354;2022-07-24T08:52:44;32.20;32.30
38910;DHT22;24676;51.360;12.354;2022-07-24T08:55:29;32.20;32.10
38910;DHT22;24676;51.360;12.354;2022-07-24T08:58:13;32.20;32.40
38910;DHT22;24676;51.360;12.354;2022-07-24T09:00:58;32.40;31.60
38910;DHT22;24676;51.360;12.354;2022-07-24T09:03:44;32.10;32.60
38910;DHT22;24676;51.360;12.354;2022-07-24T09:06:29;32.00;33.10
38910;DHT22;24676;51.360;12.354;2022-07-24T09:09:13;32.00;34.20
38910;DHT22;24676;51.360;12.354;2022-07-24T09:14:48;31.00;34.50
38910;DHT22;24676;51.360;12.354;2022-07-24T09:17:33;31.10;34.80
38910;DHT22;24676;51.360;12.354;2022-07-24T09:20:17;31.70;34.70
38910;DHT22;24676;51.360;12.354;2022-07-24T09:23:02;31.90;33.60
38910;DHT22;24676;51.360;12.354;2022-07-24T09:25:51;32.10;34.70
38910;DHT22;24676;51.360;12.354;2022-07-24T09:28:47;32.20;34.20
38910;DHT22;24676;51.360;12.354;2022-07-24T09:31:49;32.50;33.20
38910;DHT22;24676;51.360;12.354;2022-07-24T09:34:40;32.10;33.90
38910;DHT22;24676;51.360;12.354;2022-07-24T09:37:26;31.80;35.10
38910;DHT22;24676;51.360;12.354;2022-07-24T09:40:11;31.80;33.80
38910;DHT22;24676;51.360;12.354;2022-07-24T09:46:11;32.40;32.50
38910;DHT22;24676;51.360;12.354;2022-07-24T09:48:58;32.80;32.10
38910;DHT22;24676;51.360;12.354;2022-07-24T09:51:43;32.70;31.10
38910;DHT22;24676;51.360;12.354;2022-07-24T09:54:36;32.60;32.20
38910;DHT22;24676;51.360;12.354;2022-07-24T09:57:28;32.80;32.70
38910;DHT22;24676;51.360;12.354;2022-07-24T10:00:13;32.60;32.50
38910;DHT22;24676;51.360;12.354;2022-07-24T10:02:57;32.90;32.10
38910;DHT22;24676;51.360;12.354;2022-07-24T10:05:45;33.20;31.00
38910;DHT22;24676;51.360;12.354;2022-07-24T10:08:32;33.30;30.60
38910;DHT22;24676;51.360;12.354;2022-07-24T10:11:17;32.60;31.80
38910;DHT22;24676;51.360;12.354;2022-07-24T10:14:02;32.80;32.40
38910;DHT22;24676;51.360;12.354;2022-07-24T10:16:54;33.10;31.70
38910;DHT22;24676;51.360;12.354;2022-07-24T10:19:49;34.00;30.60
38910;DHT22;24676;51.360;12.354;2022-07-24T10:22:48;34.80;29.40
38910;DHT22;24676;51.360;12.354;2022-07-24T10:25:55;35.10;28.50
38910;DHT22;24676;51.360;12.354;2022-07-24T10:28:43;35.50;29.20
38910;DHT22;24676;51.360;12.354;2022-07-24T10:31:28;35.80;28.80
38910;DHT22;24676;51.360;12.354;2022-07-24T10:37:21;35.40;29.30
38910;DHT22;24676;51.360;12.354;2022-07-24T10:43:10;37.30;26.80
38910;DHT22;24676;51.360;12.354;2022-07-24T10:48:42;38.90;25.50
38910;DHT22;24676;51.360;12.354;2022-07-24T10:51:26;38.80;25.20
38910;DHT22;24676;51.360;12.354;2022-07-24T10:54:17;38.90;24.40
38910;DHT22;24676;51.360;12.354;2022-07-24T10:57:01;38.40;25.20
38910;DHT22;24676;51.360;12.354;2022-07-24T10:59:46;38.70;24.90
38910;DHT22;24676;51.360;12.354;2022-07-24T11:02:31;38.90;24.50
38910;DHT22;24676;51.360;12.354;2022-07-24T11:05:30;39.10;24.70
38910;DHT22;24676;51.360;12.354;2022-07-24T11:11:21;38.80;25.20
38910;DHT22;24676;51.360;12.354;2022-07-24T11:14:07;38.40;25.30
38910;DHT22;24676;51.360;12.354;2022-07-24T11:16:52;38.30;26.00
38910;DHT22;24676;51.360;12.354;2022-07-24T11:19:37;38.90;25.10
38910;DHT22;24676;51.360;12.354;2022-07-24T11:22:37;39.20;25.40
38910;DHT22;24676;51.360;12.354;2022-07-24T11:25:24;39.50;24.50
38910;DHT22;24676;51.360;12.354;2022-07-24T11:30:53;40.10;23.60
38910;DHT22;24676;51.360;12.354;2022-07-24T11:33:38;40.60;22.90
38910;DHT22;24676;51.360;12.354;2022-07-24T11:36:22;40.60;22.80
38910;DHT22;24676;51.360;12.354;2022-07-24T11:39:06;40.90;22.60
38910;DHT22;24676;51.360;12.354;2022-07-24T11:41:53;41.40;22.00
38910;DHT22;24676;51.360;12.354;2022-07-24T11:44:46;41.90;21.90
38910;DHT22;24676;51.360;12.354;2022-07-24T11:47:30;42.00;21.80
38910;DHT22;24676;51.360;12.354;2022-07-24T11:50:15;40.90;22.70
38910;DHT22;24676;51.360;12.354;2022-07-24T11:52:59;40.90;22.00
38910;DHT22;24676;51.360;12.354;2022-07-24T11:55:43;41.40;22.30
38910;DHT22;24676;51.360;12.354;2022-07-24T11:58:28;41.80;22.10
38910;DHT22;24676;51.360;12.354;2022-07-24T12:01:20;42.30;21.70
38910;DHT22;24676;51.360;12.354;2022-07-24T12:04:04;42.20;21.40
38910;DHT22;24676;51.360;12.354;2022-07-24T12:06:48;42.20;21.80
38910;DHT22;24676;51.360;12.354;2022-07-24T12:09:49;43.10;21.60
38910;DHT22;24676;51.360;12.354;2022-07-24T12:12:39;42.30;21.70
38910;DHT22;24676;51.360;12.354;2022-07-24T12:15:25;42.00;22.50
38910;DHT22;24676;51.360;12.354;2022-07-24T12:18:09;41.30;22.10
38910;DHT22;24676;51.360;12.354;2022-07-24T12:20:59;41.40;21.90
38910;DHT22;24676;51.360;12.354;2022-07-24T12:23:47;41.00;21.50
38910;DHT22;24676;51.360;12.354;2022-07-24T12:26:32;41.20;21.10
38910;DHT22;24676;51.360;12.354;2022-07-24T12:29:16;41.70;21.60
38910;DHT22;24676;51.360;12.354;2022-07-24T12:32:16;41.70;21.70
38910;DHT22;24676;51.360;12.354;2022-07-24T12:35:10;42.10;21.90
38910;DHT22;24676;51.360;12.354;2022-07-24T12:37:55;41.70;22.20
38910;DHT22;24676;51.360;12.354;2022-07-24T12:40:40;41.60;22.10
38910;DHT22;24676;51.360;12.354;2022-07-24T12:43:24;41.50;22.20
38910;DHT22;24676;51.360;12.354;2022-07-24T12:46:10;41.30;22.10
38910;DHT22;24676;51.360;12.354;2022-07-24T12:49:04;41.30;22.70
38910;DHT22;24676;51.360;12.354;2022-07-24T12:51:52;41.30;22.10
38910;DHT22;24676;51.360;12.354;2022-07-24T12:54:37;41.80;21.90
38910;DHT22;24676;51.360;12.354;2022-07-24T12:57:22;42.10;21.30
38910;DHT22;24676;51.360;12.354;2022-07-24T13:00:07;41.60;21.10
38910;DHT22;24676;51.360;12.354;2022-07-24T13:02:51;39.60;21.70
38910;DHT22;24676;51.360;12.354;2022-07-24T13:05:42;37.90;23.50
38910;DHT22;24676;51.360;12.354;2022-07-24T13:08:31;36.50;24.20
38910;DHT22;24676;51.360;12.354;2022-07-24T13:11:15;35.00;25.70
38910;DHT22;24676;51.360;12.354;2022-07-24T13:13:59;33.90;26.80
38910;DHT22;24676;51.360;12.354;2022-07-24T13:16:45;33.20;27.60
38910;DHT22;24676;51.360;12.354;2022-07-24T13:19:29;32.60;28.20
38910;DHT22;24676;51.360;12.354;2022-07-24T13:22:14;32.10;29.00
38910;DHT22;24676;51.360;12.354;2022-07-24T13:24:58;31.50;29.60
38910;DHT22;24676;51.360;12.354;2022-07-24T13:27:42;31.20;29.50
38910;DHT22;24676;51.360;12.354;2022-07-24T13:30:27;31.00;29.80
38910;DHT22;24676;51.360;12.354;2022-07-24T13:33:11;30.90;30.60
38910;DHT22;24676;51.360;12.354;2022-07-24T13:35:56;30.90;30.00
38910;DHT22;24676;51.360;12.354;2022-07-24T13:38:40;30.90;29.80
38910;DHT22;24676;51.360;12.354;2022-07-24T13:41:25;30.90;29.30
38910;DHT22;24676;51.360;12.354;2022-07-24T13:44:09;30.80;30.10
38910;DHT22;24676;51.360;12.354;2022-07-24T13:46:53;30.70;30.70
38910;DHT22;24676;51.360;12.354;2022-07-24T13:49:38;30.70;31.30
38910;DHT22;24676;51.360;12.354;2022-07-24T13:52:22;30.50;31.30
38910;DHT22;24676;51.360;12.354;2022-07-24T13:55:06;30.60;31.00
38910;DHT22;24676;51.360;12.354;2022-07-24T13:57:51;30.50;31.20
38910;DHT22;24676;51.360;12.354;2022-07-24T14:00:35;30.60;31.00
38910;DHT22;24676;51.360;12.354;2022-07-24T14:03:19;30.60;31.70
38910;DHT22;24676;51.360;12.354;2022-07-24T14:06:04;30.70;31.20
38910;DHT22;24676;51.360;12.354;2022-07-24T14:08:48;30.80;31.20
38910;DHT22;24676;51.360;12.354;2022-07-24T14:11:32;30.70;30.90
38910;DHT22;24676;51.360;12.354;2022-07-24T14:14:18;30.70;31.00
38910;DHT22;24676;51.360;12.354;2022-07-24T14:17:02;30.70;31.50
38910;DHT22;24676;51.360;12.354;2022-07-24T14:19:46;30.90;31.10
38910;DHT22;24676;51.360;12.354;2022-07-24T14:22:30;30.90;30.60
38910;DHT22;24676;51.360;12.354;2022-07-24T14:25:15;30.90;30.60
38910;DHT22;24676;51.360;12.354;2022-07-24T14:27:59;30.80;30.40
38910;DHT22;24676;51.360;12.354;2022-07-24T14:30:44;30.60;30.80
38910;DHT22;24676;51.360;12.354;2022-07-24T14:33:29;30.50;31.50
38910;DHT22;24676;51.360;12.354;2022-07-24T14:36:13;30.60;31.10
38910;DHT22;24676;51.360;12.354;2022-07-24T14:38:58;30.40;30.60
38910;DHT22;24676;51.360;12.354;2022-07-24T14:41:42;30.10;30.80
38910;DHT22;24676;51.360;12.354;2022-07-24T14:44:26;30.00;31.00
38910;DHT22;24676;51.360;12.354;2022-07-24T14:47:10;29.90;31.10
38910;DHT22;24676;51.360;12.354;2022-07-24T14:49:55;29.70;31.30
38910;DHT22;24676;51.360;12.354;2022-07-24T14:52:39;29.60;32.20
38910;DHT22;24676;51.360;12.354;2022-07-24T14:55:23;29.60;31.50
38910;DHT22;24676;51.360;12.354;2022-07-24T14:58:08;29.60;31.30
38910;DHT22;24676;51.360;12.354;2022-07-24T15:00:53;29.50;31.70
38910;DHT22;24676;51.360;12.354;2022-07-24T15:03:39;29.50;31.80
38910;DHT22;24676;51.360;12.354;2022-07-24T15:06:23;29.50;32.00
38910;DHT22;24676;51.360;12.354;2022-07-24T15:09:07;29.50;32.10
38910;DHT22;24676;51.360;12.354;2022-07-24T15:11:51;29.40;32.20
38910;DHT22;24676;51.360;12.354;2022-07-24T15:14:36;29.40;32.10
38910;DHT22;24676;51.360;12.354;2022-07-24T15:17:20;29.50;32.40
38910;DHT22;24676;51.360;12.354;2022-07-24T15:20:04;29.50;32.60
38910;DHT22;24676;51.360;12.354;2022-07-24T15:22:49;29.60;32.60
38910;DHT22;24676;51.360;12.354;2022-07-24T15:25:33;29.70;32.40
38910;DHT22;24676;51.360;12.354;2022-07-24T15:28:17;29.70;32.10
38910;DHT22;24676;51.360;12.354;2022-07-24T15:31:02;29.70;32.40
38910;DHT22;24676;51.360;12.354;2022-07-24T15:33:46;29.60;31.90
38910;DHT22;24676;51.360;12.354;2022-07-24T15:36:30;29.50;31.60
38910;DHT22;24676;51.360;12.354;2022-07-24T15:39:14;29.50;31.70
38910;DHT22;24676;51.360;12.354;2022-07-24T15:41:58;29.40;32.30
38910;DHT22;24676;51.360;12.354;2022-07-24T15:44:42;29.40;32.10
38910;DHT22;24676;51.360;12.354;2022-07-24T15:47:26;29.40;32.30
38910;DHT22;24676;51.360;12.354;2022-07-24T15:50:10;29.50;32.00
38910;DHT22;24676;51.360;12.354;2022-07-24T15:52:55;29.50;32.30
38910;DHT22;24676;51.360;12.354;2022-07-24T15:55:39;29.50;31.80
38910;DHT22;24676;51.360;12.354;2022-07-24T15:58:24;29.50;32.50
38910;DHT22;24676;51.360;12.354;2022-07-24T16:01:08;29.50;32.30
38910;DHT22;24676;51.360;12.354;2022-07-24T16:03:52;29.50;32.00
38910;DHT22;24676;51.360;12.354;2022-07-24T16:06:37;29.50;32.20
38910;DHT22;24676;51.360;12.354;2022-07-24T16:09:21;29.40;32.20
38910;DHT22;24676;51.360;12.354;2022-07-24T16:12:05;29.40;31.90
38910;DHT22;24676;51.360;12.354;2022-07-24T16:14:50;29.40;31.90
38910;DHT22;24676;51.360;12.354;2022-07-24T16:17:34;29.40;32.10
38910;DHT22;24676;51.360;12.354;2022-07-24T16:20:18;29.40;32.30
38910;DHT22;24676;51.360;12.354;2022-07-24T16:23:03;29.40;32.10
38910;DHT22;24676;51.360;12.354;2022-07-24T16:25:47;29.40;32.50
38910;DHT22;24676;51.360;12.354;2022-07-24T16:28:31;29.30;31.90
38910;DHT22;24676;51.360;12.354;2022-07-24T16:31:16;29.30;32.00
38910;DHT22;24676;51.360;12.354;2022-07-24T16:34:00;29.20;32.00
38910;DHT22;24676;51.360;12.354;2022-07-24T16:36:46;29.20;32.60
38910;DHT22;24676;51.360;12.354;2022-07-24T16:39:30;29.20;32.90
38910;DHT22;24676;51.360;12.354;2022-07-24T16:42:14;29.20;32.30
38910;DHT22;24676;51.360;12.354;2022-07-24T16:44:58;29.10;32.50
38910;DHT22;24676;51.360;12.354;2022-07-24T16:47:43;29.10;32.00
38910;DHT22;24676;51.360;12.354;2022-07-24T16:50:28;29.00;31.90
38910;DHT22;24676;51.360;12.354;2022-07-24T16:53:12;29.00;31.70
38910;DHT22;24676;51.360;12.354;2022-07-24T16:55:56;29.00;31.90
38910;DHT22;24676;51.360;12.354;2022-07-24T16:58:40;28.90;32.10
38910;DHT22;24676;51.360;12.354;2022-07-24T17:01:27;28.90;32.20
38910;DHT22;24676;51.360;12.354;2022-07-24T17:04:11;28.80;32.10
38910;DHT22;24676;51.360;12.354;2022-07-24T17:06:56;28.80;32.20
38910;DHT22;24676;51.360;12.354;2022-07-24T17:09:40;28.80;32.60
38910;DHT22;24676;51.360;12.354;2022-07-24T17:12:24;28.80;32.70
38910;DHT22;24676;51.360;12.354;2022-07-24T17:15:09;28.70;33.00
38910;DHT22;24676;51.360;12.354;2022-07-24T17:17:53;28.70;33.30
38910;DHT22;24676;51.360;12.354;2022-07-24T17:20:47;28.60;33.20
38910;DHT22;24676;51.360;12.354;2022-07-24T17:23:31;28.60;33.60
38910;DHT22;24676;51.360;12.354;2022-07-24T17:26:17;28.60;33.60
38910;DHT22;24676;51.360;12.354;2022-07-24T17:29:02;28.50;32.90
38910;DHT22;24676;51.360;12.354;2022-07-24T17:31:46;28.50;33.10
38910;DHT22;24676;51.360;12.354;2022-07-24T17:34:30;28.40;33.00
38910;DHT22;24676;51.360;12.354;2022-07-24T17:37:14;28.30;32.80
38910;DHT22;24676;51.360;12.354;2022-07-24T17:39:59;28.30;32.80
38910;DHT22;24676;51.360;12.354;2022-07-24T17:42:44;28.30;32.80
38910;DHT22;24676;51.360;12.354;2022-07-24T17:45:28;28.30;32.80
38910;DHT22;24676;51.360;12.354;2022-07-24T17:48:13;28.30;32.80
38910;DHT22;24676;51.360;12.354;2022-07-24T17:50:57;28.20;33.10
38910;DHT22;24676;51.360;12.354;2022-07-24T17:53:41;28.10;32.80
38910;DHT22;24676;51.360;12.354;2022-07-24T17:56:26;28.10;32.80
38910;DHT22;24676;51.360;12.354;2022-07-24T17:59:10;28.00;33.10
38910;DHT22;24676;51.360;12.354;2022-07-24T18:01:54;27.90;33.30
38910;DHT22;24676;51.360;12.354;2022-07-24T18:04:40;27.90;33.20
38910;DHT22;24676;51.360;12.354;2022-07-24T18:07:25;27.80;33.50
38910;DHT22;24676;51.360;12.354;2022-07-24T18:10:12;27.80;33.50
38910;DHT22;24676;51.360;12.354;2022-07-24T18:12:57;27.70;34.00
38910;DHT22;24676;51.360;12.354;2022-07-24T18:15:42;27.70;34.10
38910;DHT22;24676;51.360;12.354;2022-07-24T18:18:26;27.60;34.70
38910;DHT22;24676;51.360;12.354;2022-07-24T18:21:11;27.60;34.80
38910;DHT22;24676;51.360;12.354;2022-07-24T18:23:55;27.50;35.20
38910;DHT22;24676;51.360;12.354;2022-07-24T18:26:39;27.40;35.00
38910;DHT22;24676;51.360;12.354;2022-07-24T18:29:24;27.40;35.30
38910;DHT22;24676;51.360;12.354;2022-07-24T18:32:08;27.30;35.50
38910;DHT22;24676;51.360;12.354;2022-07-24T18:34:53;27.30;35.70
38910;DHT22;24676;51.360;12.354;2022-07-24T18:37:37;27.20;35.70
38910;DHT22;24676;51.360;12.354;2022-07-24T18:40:21;27.10;35.90
38910;DHT22;24676;51.360;12.354;2022-07-24T18:43:06;27.00;35.70
38910;DHT22;24676;51.360;12.354;2022-07-24T18:45:51;27.00;36.00
38910;DHT22;24676;51.360;12.354;2022-07-24T18:48:35;26.80;36.30
38910;DHT22;24676;51.360;12.354;2022-07-24T18:51:22;26.70;36.60
38910;DHT22;24676;51.360;12.354;2022-07-24T18:54:06;26.60;37.20
38910;DHT22;24676;51.360;12.354;2022-07-24T18:56:51;26.50;37.60
38910;DHT22;24676;51.360;12.354;2022-07-24T18:59:35;26.30;38.30
38910;DHT22;24676;51.360;12.354;2022-07-24T19:02:19;26.10;38.60
38910;DHT22;24676;51.360;12.354;2022-07-24T19:05:05;26.00;39.10
38910;DHT22;24676;51.360;12.354;2022-07-24T19:07:49;25.80;41.00
38910;DHT22;24676;51.360;12.354;2022-07-24T19:10:34;25.70;40.30
38910;DHT22;24676;51.360;12.354;2022-07-24T19:13:18;25.60;40.90
38910;DHT22;24676;51.360;12.354;2022-07-24T19:16:03;25.50;41.40
38910;DHT22;24676;51.360;12.354;2022-07-24T19:18:47;25.40;41.70
38910;DHT22;24676;51.360;12.354;2022-07-24T19:21:31;25.20;42.40
38910;DHT22;24676;51.360;12.354;2022-07-24T19:24:16;25.10;43.60
38910;DHT22;24676;51.360;12.354;2022-07-24T19:27:01;24.90;43.90
38910;DHT22;24676;51.360;12.354;2022-07-24T19:29:46;24.80;43.60
38910;DHT22;24676;51.360;12.354;2022-07-24T19:32:31;24.70;45.00
38910;DHT22;24676;51.360;12.354;2022-07-24T19:35:17;24.60;44.50
38910;DHT22;24676;51.360;12.354;2022-07-24T19:38:01;24.50;45.40
38910;DHT22;24676;51.360;12.354;2022-07-24T19:40:46;24.40;46.20
38910;DHT22;24676;51.360;12.354;2022-07-24T19:43:30;24.30;48.50
38910;DHT22;24676;51.360;12.354;2022-07-24T19:46:15;24.10;47.80
38910;DHT22;24676;51.360;12.354;2022-07-24T19:48:59;24.00;48.40
38910;DHT22;24676;51.360;12.354;2022-07-24T19:51:44;23.90;48.10
38910;DHT22;24676;51.360;12.354;2022-07-24T19:54:28;23.80;48.80
38910;DHT22;24676;51.360;12.354;2022-07-24T19:57:14;23.70;48.20
38910;DHT22;24676;51.360;12.354;2022-07-24T19:59:59;23.60;49.00
38910;DHT22;24676;51.360;12.354;2022-07-24T20:02:43;23.60;49.90
38910;DHT22;24676;51.360;12.354;2022-07-24T20:05:27;23.40;50.10
38910;DHT22;24676;51.360;12.354;2022-07-24T20:08:17;23.30;51.30
38910;DHT22;24676;51.360;12.354;2022-07-24T20:11:03;23.20;51.60
38910;DHT22;24676;51.360;12.354;2022-07-24T20:13:47;23.10;52.90
38910;DHT22;24676;51.360;12.354;2022-07-24T20:16:32;23.00;52.80
38910;DHT22;24676;51.360;12.354;2022-07-24T20:19:16;22.90;53.70
38910;DHT22;24676;51.360;12.354;2022-07-24T20:22:00;22.80;53.70
38910;DHT22;24676;51.360;12.354;2022-07-24T20:24:45;22.80;54.10
38910;DHT22;24676;51.360;12.354;2022-07-24T20:27:29;22.70;53.90
38910;DHT22;24676;51.360;12.354;2022-07-24T20:30:14;22.60;53.10
38910;DHT22;24676;51.360;12.354;2022-07-24T20:32:59;22.60;54.10
38910;DHT22;24676;51.360;12.354;2022-07-24T20:35:43;22.50;54.60
38910;DHT22;24676;51.360;12.354;2022-07-24T20:38:28;22.50;55.30
38910;DHT22;24676;51.360;12.354;2022-07-24T20:41:12;22.50;55.00
38910;DHT22;24676;51.360;12.354;2022-07-24T20:43:56;22.40;55.20
38910;DHT22;24676;51.360;12.354;2022-07-24T20:46:41;22.40;55.90
38910;DHT22;24676;51.360;12.354;2022-07-24T20:49:25;22.30;56.90
38910;DHT22;24676;51.360;12.354;2022-07-24T20:52:10;22.20;56.90
38910;DHT22;24676;51.360;12.354;2022-07-24T20:54:54;22.20;57.50
38910;DHT22;24676;51.360;12.354;2022-07-24T20:57:38;22.10;57.20
